CCDDF SKMD-SKMD
Flight info
| Callsign | CCDDF |
|---|---|
| Flight time | N/A |
| Altitude | 9500 |
| Route | BELLO1A BELLO TGL SKRG VFR BELLO 1C |
| Aircraft | SIRA/L-S/C |
Departure
| Time | 2026-05-01 15:28 |
|---|---|
| Airport | Enrique Olaya Herrera Airport (SKMD) |
Arrival
| Time | N/A |
|---|---|
| Airport | Enrique Olaya Herrera Airport (SKMD) |
| Time | Latitude | Longitude | Altitude | Speed | Heading |
|---|---|---|---|---|---|
| 2026-05-01 15:04 | 6.21331 | -75.58819 | 4915 ft | 0 kts | 93° |
| 2026-05-01 15:19 | 6.21417 | -75.58803 | 4903 ft | 9 kts | 338° |
| 2026-05-01 15:19 | 6.21448 | -75.58938 | 4903 ft | 11 kts | 279° |
| 2026-05-01 15:19 | 6.21457 | -75.59005 | 4908 ft | 4 kts | 240° |
| 2026-05-01 15:20 | 6.21447 | -75.59029 | 4911 ft | 5 kts | 281° |
| 2026-05-01 15:20 | 6.21449 | -75.59035 | 4909 ft | 0 kts | 282° |
| 2026-05-01 15:22 | 6.21440 | -75.59070 | 4911 ft | 12 kts | 194° |
| 2026-05-01 15:23 | 6.21357 | -75.59087 | 4917 ft | 9 kts | 193° |
| 2026-05-01 15:23 | 6.21302 | -75.59098 | 4925 ft | 8 kts | 191° |
| 2026-05-01 15:23 | 6.21296 | -75.59099 | 4925 ft | 0 kts | 191° |
| 2026-05-01 15:24 | 6.21266 | -75.59104 | 4926 ft | 14 kts | 191° |
| 2026-05-01 15:24 | 6.21151 | -75.59126 | 4935 ft | 15 kts | 190° |
| 2026-05-01 15:24 | 6.21064 | -75.59143 | 4942 ft | 10 kts | 191° |
| 2026-05-01 15:24 | 6.21003 | -75.59154 | 4948 ft | 8 kts | 192° |
| 2026-05-01 15:25 | 6.20960 | -75.59163 | 4952 ft | 5 kts | 192° |
| 2026-05-01 15:25 | 6.20930 | -75.59179 | 4955 ft | 6 kts | 229° |
| 2026-05-01 15:25 | 6.20907 | -75.59225 | 4957 ft | 8 kts | 251° |
| 2026-05-01 15:25 | 6.20911 | -75.59259 | 4959 ft | 0 kts | 347° |
| 2026-05-01 15:26 | 6.20930 | -75.59257 | 4957 ft | 7 kts | 12° |
| 2026-05-01 15:26 | 6.20942 | -75.59255 | 4956 ft | 5 kts | 9° |
| 2026-05-01 15:26 | 6.21169 | -75.59210 | 4933 ft | 60 kts | 11° |
| 2026-05-01 15:27 | 6.21647 | -75.59123 | 5027 ft | 75 kts | 15° |
| 2026-05-01 15:27 | 6.22178 | -75.59036 | 5163 ft | 81 kts | 13° |
| 2026-05-01 15:27 | 6.22736 | -75.58950 | 5305 ft | 77 kts | 13° |
| 2026-05-01 15:28 | 6.23837 | -75.58833 | 5636 ft | 79 kts | 11° |
| 2026-05-01 15:28 | 6.24319 | -75.58642 | 5812 ft | 70 kts | 56° |
| 2026-05-01 15:28 | 6.24280 | -75.58171 | 5879 ft | 78 kts | 124° |
| 2026-05-01 15:29 | 6.23242 | -75.57767 | 6097 ft | 79 kts | 168° |
| 2026-05-01 15:29 | 6.22639 | -75.57741 | 6101 ft | 90 kts | 178° |
| 2026-05-01 15:29 | 6.21378 | -75.57944 | 6162 ft | 92 kts | 192° |
| 2026-05-01 15:30 | 6.20312 | -75.58242 | 6127 ft | 99 kts | 190° |
| 2026-05-01 15:31 | 6.18420 | -75.59477 | 5889 ft | 77 kts | 304° |
| 2026-05-01 15:31 | 6.19399 | -75.59569 | 5538 ft | 81 kts | 15° |
| 2026-05-01 15:32 | 6.20504 | -75.59345 | 5161 ft | 79 kts | 15° |
| 2026-05-01 15:32 | 6.21482 | -75.59148 | 4912 ft | 58 kts | 12° |
| 2026-05-01 15:33 | 6.23048 | -75.58869 | 5300 ft | 74 kts | 18° |
| 2026-05-01 15:34 | 6.24479 | -75.58165 | 5672 ft | 76 kts | 34° |